sensor_id;sensor_type;location;lat;lon;timestamp;pressure;altitude;pressure_sealevel;temperature;humidity
81608;BME280;71022;48.122;11.576;2023-07-02T00:00:07;95061.19;;;20.35;64.15
81608;BME280;71022;48.122;11.576;2023-07-02T00:02:35;95066.69;;;20.39;63.95
81608;BME280;71022;48.122;11.576;2023-07-02T00:05:01;95063.75;;;20.26;64.10
81608;BME280;71022;48.122;11.576;2023-07-02T00:07:28;95052.13;;;20.08;64.72
81608;BME280;71022;48.122;11.576;2023-07-02T00:09:55;95050.78;;;20.16;64.59
81608;BME280;71022;48.122;11.576;2023-07-02T00:12:21;95061.00;;;20.23;64.08
81608;BME280;71022;48.122;11.576;2023-07-02T00:14:48;95056.06;;;20.11;64.58
81608;BME280;71022;48.122;11.576;2023-07-02T00:17:15;95049.22;;;20.15;64.68
81608;BME280;71022;48.122;11.576;2023-07-02T00:19:41;95054.19;;;20.04;64.14
81608;BME280;71022;48.122;11.576;2023-07-02T00:22:09;95058.09;;;19.87;65.35
81608;BME280;71022;48.122;11.576;2023-07-02T00:24:36;95064.53;;;19.84;65.51
81608;BME280;71022;48.122;11.576;2023-07-02T00:27:03;95060.81;;;19.71;65.66
81608;BME280;71022;48.122;11.576;2023-07-02T00:29:30;95062.38;;;19.72;65.41
81608;BME280;71022;48.122;11.576;2023-07-02T00:31:56;95061.44;;;19.78;65.22
81608;BME280;71022;48.122;11.576;2023-07-02T00:34:23;95062.50;;;19.65;65.61
81608;BME280;71022;48.122;11.576;2023-07-02T00:36:49;95062.75;;;19.74;65.31
81608;BME280;71022;48.122;11.576;2023-07-02T00:39:16;95063.84;;;19.80;65.18
81608;BME280;71022;48.122;11.576;2023-07-02T00:41:44;95061.34;;;19.85;65.26
81608;BME280;71022;48.122;11.576;2023-07-02T00:44:13;95063.50;;;19.74;65.52
81608;BME280;71022;48.122;11.576;2023-07-02T00:46:40;95057.66;;;19.46;66.43
81608;BME280;71022;48.122;11.576;2023-07-02T00:49:08;95052.56;;;19.41;66.43
81608;BME280;71022;48.122;11.576;2023-07-02T00:51:34;95065.59;;;19.20;67.80
81608;BME280;71022;48.122;11.576;2023-07-02T00:54:01;95057.59;;;18.99;68.35
81608;BME280;71022;48.122;11.576;2023-07-02T00:56:27;95051.84;;;18.83;69.94
81608;BME280;71022;48.122;11.576;2023-07-02T00:58:54;95061.50;;;18.75;69.76
81608;BME280;71022;48.122;11.576;2023-07-02T01:01:26;95065.31;;;18.58;70.46
81608;BME280;71022;48.122;11.576;2023-07-02T01:04:00;95061.22;;;18.36;71.62
81608;BME280;71022;48.122;11.576;2023-07-02T01:06:28;95064.25;;;18.48;71.33
81608;BME280;71022;48.122;11.576;2023-07-02T01:09:01;95064.28;;;18.45;71.51
81608;BME280;71022;48.122;11.576;2023-07-02T01:11:45;95061.56;;;18.38;72.00
81608;BME280;71022;48.122;11.576;2023-07-02T01:14:19;95068.41;;;18.33;72.54
81608;BME280;71022;48.122;11.576;2023-07-02T01:16:48;95074.00;;;18.30;72.85
81608;BME280;71022;48.122;11.576;2023-07-02T01:21:52;95081.97;;;18.28;73.84
81608;BME280;71022;48.122;11.576;2023-07-02T01:24:19;95075.88;;;18.40;72.78
81608;BME280;71022;48.122;11.576;2023-07-02T01:26:47;95076.88;;;18.56;72.36
81608;BME280;71022;48.122;11.576;2023-07-02T01:29:15;95078.53;;;18.47;72.49
81608;BME280;71022;48.122;11.576;2023-07-02T01:31:43;95084.22;;;18.40;72.58
81608;BME280;71022;48.122;11.576;2023-07-02T01:34:10;95073.72;;;18.54;72.42
81608;BME280;71022;48.122;11.576;2023-07-02T01:36:37;95083.22;;;18.57;72.20
81608;BME280;71022;48.122;11.576;2023-07-02T01:39:04;95077.75;;;18.50;72.46
81608;BME280;71022;48.122;11.576;2023-07-02T01:41:44;95084.38;;;18.25;73.10
81608;BME280;71022;48.122;11.576;2023-07-02T01:44:11;95079.56;;;18.30;72.93
81608;BME280;71022;48.122;11.576;2023-07-02T01:46:37;95076.41;;;18.28;73.65
81608;BME280;71022;48.122;11.576;2023-07-02T01:49:04;95081.16;;;18.31;73.24
81608;BME280;71022;48.122;11.576;2023-07-02T01:51:30;95082.38;;;18.26;73.46
81608;BME280;71022;48.122;11.576;2023-07-02T01:53:57;95072.84;;;18.27;73.08
81608;BME280;71022;48.122;11.576;2023-07-02T01:56:23;95081.00;;;18.41;73.05
81608;BME280;71022;48.122;11.576;2023-07-02T01:58:50;95077.75;;;18.50;72.24
81608;BME280;71022;48.122;11.576;2023-07-02T02:01:16;95079.47;;;18.37;72.63
81608;BME280;71022;48.122;11.576;2023-07-02T02:03:43;95080.22;;;18.41;72.45
81608;BME280;71022;48.122;11.576;2023-07-02T02:06:10;95077.97;;;18.29;72.71
81608;BME280;71022;48.122;11.576;2023-07-02T02:08:37;95077.31;;;18.17;73.13
81608;BME280;71022;48.122;11.576;2023-07-02T02:11:03;95080.44;;;18.23;73.03
81608;BME280;71022;48.122;11.576;2023-07-02T02:13:30;95079.63;;;18.22;73.16
81608;BME280;71022;48.122;11.576;2023-07-02T02:15:57;95080.38;;;18.27;72.66
81608;BME280;71022;48.122;11.576;2023-07-02T02:18:23;95073.34;;;18.18;72.96
81608;BME280;71022;48.122;11.576;2023-07-02T02:20:50;95071.00;;;18.13;73.05
81608;BME280;71022;48.122;11.576;2023-07-02T02:23:16;95073.69;;;18.24;72.66
81608;BME280;71022;48.122;11.576;2023-07-02T02:25:43;95081.22;;;18.23;72.57
81608;BME280;71022;48.122;11.576;2023-07-02T02:28:09;95079.09;;;18.35;72.25
81608;BME280;71022;48.122;11.576;2023-07-02T02:30:36;95083.00;;;18.41;72.23
81608;BME280;71022;48.122;11.576;2023-07-02T02:33:03;95087.28;;;18.49;71.78
81608;BME280;71022;48.122;11.576;2023-07-02T02:35:29;95085.88;;;18.34;71.95
81608;BME280;71022;48.122;11.576;2023-07-02T02:37:56;95080.78;;;18.25;72.70
81608;BME280;71022;48.122;11.576;2023-07-02T02:40:22;95074.69;;;18.37;72.20
81608;BME280;71022;48.122;11.576;2023-07-02T02:42:49;95079.56;;;18.30;72.48
81608;BME280;71022;48.122;11.576;2023-07-02T02:45:15;95074.19;;;18.15;72.67
81608;BME280;71022;48.122;11.576;2023-07-02T02:47:42;95079.63;;;18.22;72.59
81608;BME280;71022;48.122;11.576;2023-07-02T02:50:08;95077.91;;;18.36;72.34
81608;BME280;71022;48.122;11.576;2023-07-02T02:52:36;95080.25;;;18.37;71.69
81608;BME280;71022;48.122;11.576;2023-07-02T02:55:02;95078.38;;;18.31;71.84
81608;BME280;71022;48.122;11.576;2023-07-02T02:57:30;95081.16;;;18.31;71.91
81608;BME280;71022;48.122;11.576;2023-07-02T02:59:57;95082.75;;;18.28;71.89
81608;BME280;71022;48.122;11.576;2023-07-02T03:02:28;95082.84;;;18.21;72.09
81608;BME280;71022;48.122;11.576;2023-07-02T03:04:54;95081.22;;;18.23;72.19
81608;BME280;71022;48.122;11.576;2023-07-02T03:07:23;95079.91;;;18.32;72.04
81608;BME280;71022;48.122;11.576;2023-07-02T03:09:49;95089.09;;;18.29;72.70
81608;BME280;71022;48.122;11.576;2023-07-02T03:12:16;95091.34;;;18.41;71.94
81608;BME280;71022;48.122;11.576;2023-07-02T03:14:42;95095.41;;;18.33;72.27
81608;BME280;71022;48.122;11.576;2023-07-02T03:17:10;95093.13;;;18.24;73.36
81608;BME280;71022;48.122;11.576;2023-07-02T03:19:37;95096.41;;;18.15;73.85
81608;BME280;71022;48.122;11.576;2023-07-02T03:22:03;95101.22;;;18.11;74.19
81608;BME280;71022;48.122;11.576;2023-07-02T03:24:30;95106.00;;;18.07;74.41
81608;BME280;71022;48.122;11.576;2023-07-02T03:26:56;95149.75;;;18.03;74.75
81608;BME280;71022;48.122;11.576;2023-07-02T03:29:23;95155.09;;;17.32;70.83
81608;BME280;71022;48.122;11.576;2023-07-02T03:31:49;95164.84;;;16.89;70.28
81608;BME280;71022;48.122;11.576;2023-07-02T03:34:16;95175.31;;;16.46;70.29
81608;BME280;71022;48.122;11.576;2023-07-02T03:36:42;95169.09;;;16.07;70.67
81608;BME280;71022;48.122;11.576;2023-07-02T03:39:10;95178.59;;;15.77;72.93
81608;BME280;71022;48.122;11.576;2023-07-02T03:41:37;95178.63;;;15.56;74.11
81608;BME280;71022;48.122;11.576;2023-07-02T03:44:03;95179.78;;;15.44;74.88
81608;BME280;71022;48.122;11.576;2023-07-02T03:46:30;95189.66;;;15.38;75.86
81608;BME280;71022;48.122;11.576;2023-07-02T03:48:57;95188.91;;;15.52;75.13
81608;BME280;71022;48.122;11.576;2023-07-02T03:51:24;95183.78;;;15.47;77.06
81608;BME280;71022;48.122;11.576;2023-07-02T03:53:51;95197.22;;;15.52;75.59
81608;BME280;71022;48.122;11.576;2023-07-02T03:56:17;95196.41;;;15.48;74.35
81608;BME280;71022;48.122;11.576;2023-07-02T03:58:45;95195.59;;;15.37;75.57
81608;BME280;71022;48.122;11.576;2023-07-02T04:01:12;95197.56;;;15.22;76.88
81608;BME280;71022;48.122;11.576;2023-07-02T04:03:48;95197.19;;;15.34;76.79
81608;BME280;71022;48.122;11.576;2023-07-02T04:06:16;95210.22;;;15.34;77.87
81608;BME280;71022;48.122;11.576;2023-07-02T04:08:43;95203.16;;;15.75;77.84
81608;BME280;71022;48.122;11.576;2023-07-02T04:11:11;95197.13;;;16.30;76.27
81608;BME280;71022;48.122;11.576;2023-07-02T04:13:38;95193.38;;;16.96;73.08
81608;BME280;71022;48.122;11.576;2023-07-02T04:16:05;95201.84;;;17.34;71.43
81608;BME280;71022;48.122;11.576;2023-07-02T04:18:33;95207.13;;;17.76;68.93
81608;BME280;71022;48.122;11.576;2023-07-02T04:21:00;95201.56;;;17.80;69.34
81608;BME280;71022;48.122;11.576;2023-07-02T04:23:27;95203.75;;;17.99;67.93
81608;BME280;71022;48.122;11.576;2023-07-02T04:25:54;95197.81;;;18.00;67.46
81608;BME280;71022;48.122;11.576;2023-07-02T04:28:40;95195.69;;;17.67;69.65
81608;BME280;71022;48.122;11.576;2023-07-02T04:31:07;95189.22;;;17.26;70.37
81608;BME280;71022;48.122;11.576;2023-07-02T04:33:33;95192.59;;;16.85;72.86
81608;BME280;71022;48.122;11.576;2023-07-02T04:36:03;95201.38;;;16.70;73.10
81608;BME280;71022;48.122;11.576;2023-07-02T04:38:30;95203.91;;;16.22;74.18
81608;BME280;71022;48.122;11.576;2023-07-02T04:40:56;95199.13;;;16.22;74.80
81608;BME280;71022;48.122;11.576;2023-07-02T04:43:32;95199.50;;;16.28;74.25
81608;BME280;71022;48.122;11.576;2023-07-02T04:46:00;95194.34;;;16.37;75.42
81608;BME280;71022;48.122;11.576;2023-07-02T04:48:27;95193.56;;;16.33;74.96
81608;BME280;71022;48.122;11.576;2023-07-02T04:50:54;95187.25;;;16.29;74.60
81608;BME280;71022;48.122;11.576;2023-07-02T04:53:20;95194.31;;;16.44;74.34
81608;BME280;71022;48.122;11.576;2023-07-02T04:55:47;95200.19;;;16.74;72.72
81608;BME280;71022;48.122;11.576;2023-07-02T04:58:13;95202.16;;;16.74;73.33
81608;BME280;71022;48.122;11.576;2023-07-02T05:00:40;95202.59;;;16.65;73.49
81608;BME280;71022;48.122;11.576;2023-07-02T05:03:06;95207.75;;;16.63;72.98
81608;BME280;71022;48.122;11.576;2023-07-02T05:05:33;95210.13;;;16.61;73.49
81608;BME280;71022;48.122;11.576;2023-07-02T05:08:00;95214.88;;;16.64;72.30
81608;BME280;71022;48.122;11.576;2023-07-02T05:10:26;95217.25;;;16.69;73.49
81608;BME280;71022;48.122;11.576;2023-07-02T05:12:53;95224.25;;;16.98;70.83
81608;BME280;71022;48.122;11.576;2023-07-02T05:15:19;95217.16;;;16.90;71.35
81608;BME280;71022;48.122;11.576;2023-07-02T05:17:46;95220.31;;;16.92;72.14
81608;BME280;71022;48.122;11.576;2023-07-02T05:20:13;95221.94;;;16.86;72.65
81608;BME280;71022;48.122;11.576;2023-07-02T05:22:39;95229.69;;;17.20;72.13
81608;BME280;71022;48.122;11.576;2023-07-02T05:25:06;95225.06;;;16.95;72.21
81608;BME280;71022;48.122;11.576;2023-07-02T05:27:33;95225.16;;;16.74;73.37
81608;BME280;71022;48.122;11.576;2023-07-02T05:29:59;95229.16;;;16.66;73.15
81608;BME280;71022;48.122;11.576;2023-07-02T05:32:26;95223.91;;;16.89;73.28
81608;BME280;71022;48.122;11.576;2023-07-02T05:34:53;95232.03;;;17.25;71.81
81608;BME280;71022;48.122;11.576;2023-07-02T05:37:19;95238.38;;;17.29;71.08
81608;BME280;71022;48.122;11.576;2023-07-02T05:39:46;95230.84;;;17.26;72.47
81608;BME280;71022;48.122;11.576;2023-07-02T05:42:12;95223.41;;;17.08;71.95
81608;BME280;71022;48.122;11.576;2023-07-02T05:44:39;95226.16;;;17.15;72.52
81608;BME280;71022;48.122;11.576;2023-07-02T05:47:05;95219.75;;;17.26;72.49
81608;BME280;71022;48.122;11.576;2023-07-02T05:49:32;95229.69;;;17.20;71.79
81608;BME280;71022;48.122;11.576;2023-07-02T05:51:59;95230.84;;;17.29;71.04
81608;BME280;71022;48.122;11.576;2023-07-02T05:54:25;95230.44;;;17.24;72.20
81608;BME280;71022;48.122;11.576;2023-07-02T05:56:52;95228.13;;;17.11;72.20
81608;BME280;71022;48.122;11.576;2023-07-02T05:59:18;95231.78;;;16.94;73.32
81608;BME280;71022;48.122;11.576;2023-07-02T06:01:45;95226.69;;;16.82;72.33
81608;BME280;71022;48.122;11.576;2023-07-02T06:04:13;95242.50;;;16.92;73.28
81608;BME280;71022;48.122;11.576;2023-07-02T06:06:42;95235.00;;;16.82;73.94
81608;BME280;71022;48.122;11.576;2023-07-02T06:09:09;95232.22;;;16.89;73.27
81608;BME280;71022;48.122;11.576;2023-07-02T06:11:36;95238.56;;;16.93;71.61
81608;BME280;71022;48.122;11.576;2023-07-02T06:14:03;95238.56;;;16.93;73.25
81608;BME280;71022;48.122;11.576;2023-07-02T06:16:29;95242.13;;;16.87;72.44
81608;BME280;71022;48.122;11.576;2023-07-02T06:18:56;95243.34;;;16.82;72.29
81608;BME280;71022;48.122;11.576;2023-07-02T06:21:22;95242.94;;;16.80;73.22
81608;BME280;71022;48.122;11.576;2023-07-02T06:23:51;95247.19;;;17.09;72.43
81608;BME280;71022;48.122;11.576;2023-07-02T06:26:17;95243.97;;;17.14;71.76
81608;BME280;71022;48.122;11.576;2023-07-02T06:28:44;95259.88;;;17.10;72.41
81608;BME280;71022;48.122;11.576;2023-07-02T06:31:11;95256.22;;;17.21;72.11
81608;BME280;71022;48.122;11.576;2023-07-02T06:33:40;95257.81;;;17.29;72.53
81608;BME280;71022;48.122;11.576;2023-07-02T06:36:07;95254.25;;;17.21;72.22
81608;BME280;71022;48.122;11.576;2023-07-02T06:38:37;95257.50;;;17.05;73.51
81608;BME280;71022;48.122;11.576;2023-07-02T06:41:03;95251.56;;;17.00;72.58
81608;BME280;71022;48.122;11.576;2023-07-02T06:43:30;95261.38;;;17.26;73.16
81608;BME280;71022;48.122;11.576;2023-07-02T06:45:56;95261.31;;;17.33;72.14
81608;BME280;71022;48.122;11.576;2023-07-02T06:48:23;95265.19;;;17.56;71.45
81608;BME280;71022;48.122;11.576;2023-07-02T06:50:49;95259.47;;;17.81;71.08
81608;BME280;71022;48.122;11.576;2023-07-02T06:53:16;95257.53;;;17.75;70.64
81608;BME280;71022;48.122;11.576;2023-07-02T06:55:43;95263.84;;;17.82;70.35
81608;BME280;71022;48.122;11.576;2023-07-02T06:58:10;95271.66;;;17.98;70.07
81608;BME280;71022;48.122;11.576;2023-07-02T07:00:36;95272.72;;;18.14;69.33
81608;BME280;71022;48.122;11.576;2023-07-02T07:03:03;95286.06;;;18.34;68.58
81608;BME280;71022;48.122;11.576;2023-07-02T07:05:33;95279.75;;;18.26;68.25
81608;BME280;71022;48.122;11.576;2023-07-02T07:08:00;95278.25;;;18.18;68.77
81608;BME280;71022;48.122;11.576;2023-07-02T07:10:27;95281.59;;;17.95;69.96
81608;BME280;71022;48.122;11.576;2023-07-02T07:12:54;95276.34;;;18.04;69.99
81608;BME280;71022;48.122;11.576;2023-07-02T07:15:21;95280.06;;;17.87;70.67
81608;BME280;71022;48.122;11.576;2023-07-02T07:17:47;95293.72;;;17.64;71.74
81608;BME280;71022;48.122;11.576;2023-07-02T07:20:14;95286.63;;;17.49;72.41
81608;BME280;71022;48.122;11.576;2023-07-02T07:22:41;95291.47;;;17.38;73.63
81608;BME280;71022;48.122;11.576;2023-07-02T07:25:08;95290.78;;;17.12;73.94
81608;BME280;71022;48.122;11.576;2023-07-02T07:27:34;95297.06;;;17.24;73.50
81608;BME280;71022;48.122;11.576;2023-07-02T07:30:01;95294.72;;;17.19;71.92
81608;BME280;71022;48.122;11.576;2023-07-02T07:32:28;95288.50;;;16.83;73.75
81608;BME280;71022;48.122;11.576;2023-07-02T07:34:55;95293.31;;;16.47;74.53
81608;BME280;71022;48.122;11.576;2023-07-02T07:37:22;95293.34;;;16.26;75.76
81608;BME280;71022;48.122;11.576;2023-07-02T07:39:48;95298.88;;;16.04;76.78
81608;BME280;71022;48.122;11.576;2023-07-02T07:58:26;95317.63;;;17.33;72.63
81608;BME280;71022;48.122;11.576;2023-07-02T08:05:47;95304.66;;;17.09;73.56
81608;BME280;71022;48.122;11.576;2023-07-02T08:18:59;95308.78;;;18.21;71.58
81608;BME280;71022;48.122;11.576;2023-07-02T08:22:29;95308.88;;;18.59;70.86
81608;BME280;71022;48.122;11.576;2023-07-02T08:25:11;95309.63;;;18.66;69.96
81608;BME280;71022;48.122;11.576;2023-07-02T08:31:49;95324.31;;;18.15;72.01
81608;BME280;71022;48.122;11.576;2023-07-02T08:49:14;95341.25;;;17.77;73.88
81608;BME280;71022;48.122;11.576;2023-07-02T08:56:47;95349.09;;;17.92;72.47
81608;BME280;71022;48.122;11.576;2023-07-02T09:25:02;95359.63;;;18.70;70.76
81608;BME280;71022;48.122;11.576;2023-07-02T09:32:03;95345.66;;;18.77;70.85
81608;BME280;71022;48.122;11.576;2023-07-02T09:34:35;95358.88;;;18.66;70.25
81608;BME280;71022;48.122;11.576;2023-07-02T09:37:06;95357.31;;;18.61;70.62
81608;BME280;71022;48.122;11.576;2023-07-02T09:39:41;95353.81;;;18.57;71.60
81608;BME280;71022;48.122;11.576;2023-07-02T09:46:41;95357.63;;;18.74;70.32
81608;BME280;71022;48.122;11.576;2023-07-02T10:17:23;95355.72;;;19.39;68.50
81608;BME280;71022;48.122;11.576;2023-07-02T10:24:39;95343.41;;;20.00;68.47
81608;BME280;71022;48.122;11.576;2023-07-02T11:22:08;95319.00;;;20.08;65.50
81608;BME280;71022;48.122;11.576;2023-07-02T11:24:36;95313.84;;;20.33;62.63
81608;BME280;71022;48.122;11.576;2023-07-02T11:27:06;95315.59;;;20.47;62.14
81608;BME280;71022;48.122;11.576;2023-07-02T11:29:34;95315.75;;;20.39;62.94
81608;BME280;71022;48.122;11.576;2023-07-02T11:32:11;95314.53;;;20.64;61.81
81608;BME280;71022;48.122;11.576;2023-07-02T11:37:07;95308.06;;;20.90;61.14
81608;BME280;71022;48.122;11.576;2023-07-02T11:39:34;95308.88;;;20.90;61.12
81608;BME280;71022;48.122;11.576;2023-07-02T11:42:48;95304.41;;;21.16;60.41
81608;BME280;71022;48.122;11.576;2023-07-02T11:45:14;95305.34;;;21.29;59.38
81608;BME280;71022;48.122;11.576;2023-07-02T11:47:41;95299.09;;;21.41;59.22
81608;BME280;71022;48.122;11.576;2023-07-02T11:50:08;95297.66;;;21.33;59.35
81608;BME280;71022;48.122;11.576;2023-07-02T11:52:51;95303.19;;;21.37;60.66
81608;BME280;71022;48.122;11.576;2023-07-02T11:55:18;95296.22;;;21.65;59.51
81608;BME280;71022;48.122;11.576;2023-07-02T11:57:44;95291.22;;;21.36;57.46
81608;BME280;71022;48.122;11.576;2023-07-02T12:00:13;95294.81;;;21.17;59.95
81608;BME280;71022;48.122;11.576;2023-07-02T12:02:40;95290.97;;;21.08;60.07
81608;BME280;71022;48.122;11.576;2023-07-02T12:05:07;95285.34;;;21.31;58.95
81608;BME280;71022;48.122;11.576;2023-07-02T12:07:38;95283.47;;;21.64;57.62
81608;BME280;71022;48.122;11.576;2023-07-02T12:10:05;95281.59;;;21.77;57.84
81608;BME280;71022;48.122;11.576;2023-07-02T12:12:32;95274.75;;;21.78;58.11
81608;BME280;71022;48.122;11.576;2023-07-02T12:14:59;95280.53;;;21.87;56.87
81608;BME280;71022;48.122;11.576;2023-07-02T12:17:25;95268.97;;;21.69;54.90
81608;BME280;71022;48.122;11.576;2023-07-02T12:19:52;95261.84;;;21.48;57.59
81608;BME280;71022;48.122;11.576;2023-07-02T12:22:19;95262.81;;;21.58;57.81
81608;BME280;71022;48.122;11.576;2023-07-02T12:24:48;95257.56;;;21.79;56.13
81608;BME280;71022;48.122;11.576;2023-07-02T12:27:16;95265.41;;;21.84;56.20
81608;BME280;71022;48.122;11.576;2023-07-02T12:29:43;95265.22;;;21.95;55.15
81608;BME280;71022;48.122;11.576;2023-07-02T12:32:09;95257.56;;;21.79;53.71
81608;BME280;71022;48.122;11.576;2023-07-02T12:34:36;95268.00;;;21.95;54.37
81608;BME280;71022;48.122;11.576;2023-07-02T12:37:05;95252.63;;;22.19;54.34
81608;BME280;71022;48.122;11.576;2023-07-02T12:39:31;95257.69;;;22.40;54.38
81608;BME280;71022;48.122;11.576;2023-07-02T12:41:58;95252.97;;;22.53;51.14
81608;BME280;71022;48.122;11.576;2023-07-02T12:44:24;95251.63;;;22.58;52.23
81608;BME280;71022;48.122;11.576;2023-07-02T12:46:51;95255.47;;;22.64;52.94
81608;BME280;71022;48.122;11.576;2023-07-02T12:49:18;95248.75;;;22.78;51.88
81608;BME280;71022;48.122;11.576;2023-07-02T12:51:44;95243.88;;;22.82;52.56
81608;BME280;71022;48.122;11.576;2023-07-02T12:54:11;95237.31;;;23.01;50.76
81608;BME280;71022;48.122;11.576;2023-07-02T12:56:46;95243.22;;;23.19;48.33
81608;BME280;71022;48.122;11.576;2023-07-02T12:59:39;95244.66;;;23.11;49.28
81608;BME280;71022;48.122;11.576;2023-07-02T13:02:10;95244.69;;;22.95;48.70
81608;BME280;71022;48.122;11.576;2023-07-02T13:04:52;95242.66;;;23.24;46.72
81608;BME280;71022;48.122;11.576;2023-07-02T13:07:25;95246.13;;;23.44;46.44
81608;BME280;71022;48.122;11.576;2023-07-02T13:10:02;95235.25;;;23.59;45.53
81608;BME280;71022;48.122;11.576;2023-07-02T13:12:31;95238.97;;;23.68;45.28
81608;BME280;71022;48.122;11.576;2023-07-02T13:15:01;95238.75;;;23.76;44.51
81608;BME280;71022;48.122;11.576;2023-07-02T13:17:52;95239.97;;;23.62;45.05
81608;BME280;71022;48.122;11.576;2023-07-02T13:20:19;95243.22;;;23.60;44.18
81608;BME280;71022;48.122;11.576;2023-07-02T13:22:46;95255.66;;;23.47;44.90
81608;BME280;71022;48.122;11.576;2023-07-02T13:25:23;95246.22;;;23.41;44.83
81608;BME280;71022;48.122;11.576;2023-07-02T13:27:52;95247.59;;;23.61;45.13
81608;BME280;71022;48.122;11.576;2023-07-02T13:30:25;95243.81;;;23.68;44.01
81608;BME280;71022;48.122;11.576;2023-07-02T13:32:56;95248.75;;;23.89;44.90
81608;BME280;71022;48.122;11.576;2023-07-02T13:35:43;95253.13;;;24.03;44.29
81608;BME280;71022;48.122;11.576;2023-07-02T13:38:12;95242.22;;;24.05;45.07
81608;BME280;71022;48.122;11.576;2023-07-02T13:40:39;95249.56;;;24.15;44.60
81608;BME280;71022;48.122;11.576;2023-07-02T13:43:24;95247.53;;;24.15;43.84
81608;BME280;71022;48.122;11.576;2023-07-02T13:45:56;95231.81;;;24.18;43.79
81608;BME280;71022;48.122;11.576;2023-07-02T13:48:32;95237.19;;;24.38;43.93
81608;BME280;71022;48.122;11.576;2023-07-02T13:51:14;95233.72;;;24.34;42.76
81608;BME280;71022;48.122;11.576;2023-07-02T13:53:47;95246.63;;;24.31;42.43
81608;BME280;71022;48.122;11.576;2023-07-02T13:56:43;95220.25;;;24.03;42.43
81608;BME280;71022;48.122;11.576;2023-07-02T13:59:26;95232.25;;;24.04;42.64
81608;BME280;71022;48.122;11.576;2023-07-02T14:02:16;95232.94;;;23.83;43.21
81608;BME280;71022;48.122;11.576;2023-07-02T14:04:47;95245.03;;;23.80;43.74
81608;BME280;71022;48.122;11.576;2023-07-02T14:07:14;95232.69;;;23.64;44.87
81608;BME280;71022;48.122;11.576;2023-07-02T14:09:40;95236.38;;;23.87;43.00
81608;BME280;71022;48.122;11.576;2023-07-02T14:12:10;95230.56;;;23.94;43.51
81608;BME280;71022;48.122;11.576;2023-07-02T14:14:48;95233.25;;;24.10;42.53
81608;BME280;71022;48.122;11.576;2023-07-02T14:18:04;95229.22;;;24.23;42.10
81608;BME280;71022;48.122;11.576;2023-07-02T14:24:09;95231.25;;;23.98;42.37
81608;BME280;71022;48.122;11.576;2023-07-02T14:26:46;95234.50;;;23.96;41.28
81608;BME280;71022;48.122;11.576;2023-07-02T14:29:21;95219.81;;;23.92;39.88
81608;BME280;71022;48.122;11.576;2023-07-02T14:32:01;95227.06;;;23.90;40.33
81608;BME280;71022;48.122;11.576;2023-07-02T14:35:02;95232.94;;;23.83;40.59
81608;BME280;71022;48.122;11.576;2023-07-02T14:37:52;95224.84;;;23.85;41.37
81608;BME280;71022;48.122;11.576;2023-07-02T14:40:26;95230.56;;;23.81;41.90
81608;BME280;71022;48.122;11.576;2023-07-02T14:46:43;95214.06;;;23.96;40.77
81608;BME280;71022;48.122;11.576;2023-07-02T14:49:23;95226.97;;;23.93;40.17
81608;BME280;71022;48.122;11.576;2023-07-02T14:52:24;95230.34;;;23.88;41.31
81608;BME280;71022;48.122;11.576;2023-07-02T14:54:57;95216.53;;;23.94;40.78
81608;BME280;71022;48.122;11.576;2023-07-02T14:58:07;95225.97;;;24.00;40.85
81608;BME280;71022;48.122;11.576;2023-07-02T15:01:25;95216.75;;;23.87;40.65
81608;BME280;71022;48.122;11.576;2023-07-02T15:04:42;95225.84;;;23.78;41.64
81608;BME280;71022;48.122;11.576;2023-07-02T15:11:31;95229.66;;;23.84;42.04
81608;BME280;71022;48.122;11.576;2023-07-02T15:14:11;95222.63;;;23.92;41.25
81608;BME280;71022;48.122;11.576;2023-07-02T15:16:38;95222.16;;;23.94;41.64
81608;BME280;71022;48.122;11.576;2023-07-02T15:19:04;95226.44;;;23.86;41.66
81608;BME280;71022;48.122;11.576;2023-07-02T15:21:31;95211.38;;;23.80;42.36
81608;BME280;71022;48.122;11.576;2023-07-02T15:23:59;95223.25;;;23.84;42.23
81608;BME280;71022;48.122;11.576;2023-07-02T15:26:25;95219.13;;;24.01;41.98
81608;BME280;71022;48.122;11.576;2023-07-02T15:28:52;95219.91;;;24.14;41.94
81608;BME280;71022;48.122;11.576;2023-07-02T15:31:19;95223.63;;;24.11;41.96
81608;BME280;71022;48.122;11.576;2023-07-02T15:33:47;95205.75;;;24.05;42.22
81608;BME280;71022;48.122;11.576;2023-07-02T15:36:14;95219.25;;;24.10;40.92
81608;BME280;71022;48.122;11.576;2023-07-02T15:38:41;95217.88;;;24.27;41.38
81608;BME280;71022;48.122;11.576;2023-07-02T15:41:16;95209.00;;;24.29;41.45
81608;BME280;71022;48.122;11.576;2023-07-02T15:43:46;95222.59;;;24.05;40.51
81608;BME280;71022;48.122;11.576;2023-07-02T15:46:16;95214.84;;;23.96;42.22
81608;BME280;71022;48.122;11.576;2023-07-02T15:48:46;95216.56;;;24.19;40.76
81608;BME280;71022;48.122;11.576;2023-07-02T15:51:16;95204.84;;;24.08;42.49
81608;BME280;71022;48.122;11.576;2023-07-02T15:53:42;95215.66;;;24.22;41.14
81608;BME280;71022;48.122;11.576;2023-07-02T15:56:10;95215.28;;;24.33;40.68
81608;BME280;71022;48.122;11.576;2023-07-02T15:58:37;95214.75;;;24.25;40.21
81608;BME280;71022;48.122;11.576;2023-07-02T16:01:20;95211.03;;;23.90;40.73
81608;BME280;71022;48.122;11.576;2023-07-02T16:03:54;95215.41;;;23.79;40.40
81608;BME280;71022;48.122;11.576;2023-07-02T16:06:22;95210.69;;;23.76;40.79
81608;BME280;71022;48.122;11.576;2023-07-02T16:08:51;95203.66;;;23.71;41.23
81608;BME280;71022;48.122;11.576;2023-07-02T16:11:18;95215.41;;;23.79;41.44
81608;BME280;71022;48.122;11.576;2023-07-02T16:13:45;95210.94;;;23.94;41.02
81608;BME280;71022;48.122;11.576;2023-07-02T16:16:18;95210.47;;;24.08;41.46
81608;BME280;71022;48.122;11.576;2023-07-02T16:18:46;95207.66;;;24.08;41.34